createdAt,value
2022-11-28T00:02:50.955Z,30.03
2022-11-28T00:06:12.927Z,27.43
2022-11-28T00:09:35.729Z,29.27
2022-11-28T00:12:57.498Z,28.37
2022-11-28T00:16:22.315Z,29.50
2022-11-28T00:19:44.139Z,28.43
2022-11-28T00:23:06.002Z,31.73
2022-11-28T00:26:31.650Z,29.37
2022-11-28T00:29:56.909Z,28.80
2022-11-28T00:33:18.920Z,29.10
2022-11-28T00:36:40.774Z,29.90
2022-11-28T00:40:02.273Z,28.77
2022-11-28T00:43:25.546Z,27.87
2022-11-28T00:46:47.222Z,27.90
2022-11-28T00:50:10.941Z,25.97
2022-11-28T00:53:32.874Z,29.03
2022-11-28T00:56:54.763Z,29.43
2022-11-28T01:00:19.521Z,28.23
2022-11-28T01:03:41.124Z,29.60
2022-11-28T01:07:03.422Z,27.13
2022-11-28T01:10:25.350Z,29.57
2022-11-28T01:13:46.614Z,29.37
2022-11-28T01:17:09.754Z,29.03
2022-11-28T01:20:31.396Z,30.93
2022-11-28T01:23:53.197Z,29.83
2022-11-28T01:27:14.642Z,26.03
2022-11-28T01:30:36.453Z,25.23
2022-11-28T01:33:59.912Z,29.00
2022-11-28T01:37:21.395Z,26.53
2022-11-28T01:40:46.187Z,31.97
2022-11-28T01:44:30.142Z,28.47
2022-11-28T01:47:54.838Z,27.63
2022-11-28T01:51:18.409Z,30.97
2022-11-28T01:54:43.568Z,29.80
2022-11-28T01:58:06.655Z,27.10
2022-11-28T02:01:28.616Z,28.30
2022-11-28T02:04:51.870Z,30.63
2022-11-28T02:08:14.910Z,32.47
2022-11-28T02:11:51.126Z,29.13
2022-11-28T02:15:24.918Z,29.10
2022-11-28T02:18:58.403Z,30.17
2022-11-28T02:22:23.869Z,28.27
2022-11-28T02:26:22.723Z,27.87
2022-11-28T02:30:20.967Z,26.80
2022-11-28T02:33:50.069Z,29.80
2022-11-28T02:37:18.654Z,25.33
2022-11-28T02:40:50.521Z,26.67
2022-11-28T02:44:17.054Z,30.20
2022-11-28T02:47:42.197Z,29.53
2022-11-28T02:51:11.440Z,27.17
2022-11-28T02:54:33.782Z,25.53
2022-11-28T02:57:56.573Z,29.30
2022-11-28T03:01:22.267Z,29.87
2022-11-28T03:04:51.645Z,28.70
2022-11-28T03:08:32.191Z,29.57
2022-11-28T03:12:05.182Z,33.00
2022-11-28T03:15:38.003Z,26.43
2022-11-28T03:19:07.690Z,27.60
2022-11-28T03:22:35.467Z,27.50
2022-11-28T03:26:01.605Z,28.13
2022-11-28T03:29:28.119Z,30.63
2022-11-28T03:32:53.627Z,25.97
2022-11-28T03:36:21.000Z,27.73
2022-11-28T03:39:47.616Z,30.90
2022-11-28T03:43:14.738Z,26.97
2022-11-28T03:46:39.487Z,26.67
2022-11-28T03:50:06.064Z,29.93
2022-11-28T03:53:32.499Z,27.40
2022-11-28T03:57:01.570Z,28.07
2022-11-28T04:00:25.731Z,27.63
2022-11-28T04:03:54.671Z,27.23
2022-11-28T04:07:24.718Z,26.27
2022-11-28T04:10:53.903Z,28.33
2022-11-28T04:14:23.323Z,29.23
2022-11-28T04:17:52.384Z,29.23
2022-11-28T04:21:20.914Z,26.03
2022-11-28T04:24:48.127Z,28.50
2022-11-28T04:28:15.221Z,26.23
2022-11-28T04:31:39.386Z,24.30
2022-11-28T04:35:05.953Z,26.47
2022-11-28T04:38:30.527Z,27.83
2022-11-28T04:41:55.654Z,25.53
2022-11-28T04:45:20.966Z,30.40
2022-11-28T04:48:43.399Z,26.70
2022-11-28T04:52:10.961Z,28.07
2022-11-28T04:55:39.463Z,29.17
2022-11-28T04:59:02.191Z,28.37
2022-11-28T05:02:25.903Z,30.47
2022-11-28T05:05:49.930Z,28.07
2022-11-28T05:09:14.776Z,27.83
2022-11-28T05:12:36.574Z,28.53
2022-11-28T05:16:01.193Z,27.97
2022-11-28T05:19:23.303Z,28.27
2022-11-28T05:22:45.046Z,29.83
2022-11-28T05:26:10.166Z,28.03
2022-11-28T05:29:32.002Z,32.20
2022-11-28T05:32:54.122Z,31.10
2022-11-28T05:36:17.444Z,31.90
2022-11-28T05:39:39.224Z,30.93
2022-11-28T05:43:02.483Z,31.23
2022-11-28T05:46:24.399Z,30.53
2022-11-28T05:49:48.402Z,31.63
2022-11-28T05:53:10.814Z,33.63
2022-11-28T05:56:34.349Z,31.47
2022-11-28T05:59:59.044Z,29.17
2022-11-28T06:03:20.991Z,35.83
2022-11-28T06:06:43.058Z,31.10
2022-11-28T06:10:05.110Z,31.97
2022-11-28T06:13:27.977Z,36.30
2022-11-28T06:16:51.036Z,29.30
2022-11-28T06:20:12.941Z,29.03
2022-11-28T06:23:35.312Z,28.63
2022-11-28T06:26:56.880Z,28.03
2022-11-28T06:30:18.934Z,33.43
2022-11-28T06:33:42.659Z,30.73
2022-11-28T06:37:04.522Z,30.73
2022-11-28T06:40:26.544Z,28.17
2022-11-28T06:43:48.200Z,32.73
2022-11-28T06:47:09.784Z,31.00
2022-11-28T06:50:33.964Z,29.80
2022-11-28T06:53:55.586Z,29.07
2022-11-28T06:57:17.384Z,30.67
2022-11-28T07:00:39.538Z,32.30
2022-11-28T07:04:02.018Z,32.87
2022-11-28T07:07:25.333Z,32.50
2022-11-28T07:10:47.047Z,35.20
2022-11-28T07:14:08.899Z,32.37
2022-11-28T07:17:30.562Z,31.57
2022-11-28T07:20:52.519Z,34.50
2022-11-28T07:24:15.406Z,33.33
2022-11-28T07:27:37.038Z,36.53
2022-11-28T07:31:04.255Z,33.87
2022-11-28T07:34:26.166Z,38.20
2022-11-28T07:37:48.115Z,33.67
2022-11-28T07:41:12.833Z,39.17
2022-11-28T07:44:34.882Z,40.43
2022-11-28T07:47:56.291Z,39.27
2022-11-28T07:51:21.034Z,34.93
2022-11-28T07:54:43.023Z,34.90
2022-11-28T07:58:06.688Z,42.53
2022-11-28T08:01:32.850Z,39.63
2022-11-28T08:04:55.463Z,37.13
2022-11-28T08:08:18.293Z,37.53
2022-11-28T08:11:41.321Z,41.20
2022-11-28T08:15:04.881Z,40.10
2022-11-28T08:18:26.550Z,37.93
2022-11-28T08:21:48.889Z,42.27
2022-11-28T08:25:11.198Z,36.17
2022-11-28T08:28:33.327Z,37.43
2022-11-28T08:31:56.302Z,38.07
2022-11-28T08:35:18.240Z,36.27
2022-11-28T08:38:40.467Z,39.20
2022-11-28T08:42:02.370Z,40.17
2022-11-28T08:45:23.915Z,42.90
2022-11-28T08:48:47.743Z,38.20
2022-11-28T08:52:09.713Z,44.53
2022-11-28T08:55:33.302Z,42.63
2022-11-28T08:58:56.559Z,42.80
2022-11-28T09:02:20.830Z,44.10
2022-11-28T09:05:48.565Z,46.93
2022-11-28T09:09:10.245Z,42.70
2022-11-28T09:12:32.229Z,44.23
2022-11-28T09:15:55.013Z,43.53
2022-11-28T09:19:16.859Z,45.50
2022-11-28T09:22:40.794Z,39.33
2022-11-28T09:26:02.386Z,46.07
2022-11-28T09:29:24.243Z,41.03
2022-11-28T09:32:49.359Z,41.67
2022-11-28T09:36:13.984Z,46.30
2022-11-28T09:39:50.550Z,44.87
2022-11-28T09:43:24.723Z,40.57
2022-11-28T09:46:49.127Z,42.87
2022-11-28T09:50:15.480Z,49.57
2022-11-28T09:53:43.038Z,50.83
2022-11-28T09:57:14.039Z,41.77
2022-11-28T10:00:38.846Z,52.97
2022-11-28T10:04:05.404Z,45.80
2022-11-28T10:07:34.317Z,46.43
2022-11-28T10:11:03.541Z,44.97
2022-11-28T10:14:51.087Z,45.27
2022-11-28T10:18:27.287Z,50.43
2022-11-28T10:21:59.003Z,49.00
2022-11-28T10:25:25.554Z,49.93
2022-11-28T10:28:51.260Z,46.73
2022-11-28T10:32:19.905Z,45.70
2022-11-28T10:35:48.903Z,45.93
2022-11-28T10:39:13.726Z,45.77
2022-11-28T10:42:43.201Z,46.40
2022-11-28T10:46:30.146Z,43.57
2022-11-28T10:50:02.617Z,45.40
2022-11-28T10:53:36.279Z,48.77
2022-11-28T10:57:05.230Z,49.67
2022-11-28T11:00:26.772Z,48.50
2022-11-28T11:03:49.221Z,56.50
2022-11-28T11:07:22.792Z,46.40
2022-11-28T11:10:50.598Z,52.30
2022-11-28T11:14:12.752Z,47.90
2022-11-28T11:17:37.787Z,50.87
2022-11-28T11:21:10.142Z,47.63
2022-11-28T11:24:34.393Z,51.43
2022-11-28T11:27:57.760Z,46.43
2022-11-28T11:31:23.553Z,46.57
2022-11-28T11:34:47.000Z,48.53
2022-11-28T11:38:27.521Z,43.27
2022-11-28T11:41:53.664Z,47.90
2022-11-28T11:45:30.658Z,51.63
2022-11-28T11:48:54.355Z,47.27
2022-11-28T11:52:22.210Z,46.97
2022-11-28T11:55:49.179Z,46.63
2022-11-28T11:59:17.899Z,44.97
2022-11-28T12:02:44.667Z,44.63
2022-11-28T12:06:14.655Z,44.47
2022-11-28T12:09:41.818Z,44.60
2022-11-28T12:13:04.782Z,46.73
2022-11-28T12:16:45.292Z,45.93
2022-11-28T12:20:26.710Z,47.43
2022-11-28T12:24:05.992Z,45.60
2022-11-28T12:27:44.565Z,42.93
2022-11-28T12:31:17.171Z,45.37
2022-11-28T12:34:51.472Z,46.67
2022-11-28T12:38:32.748Z,46.10
2022-11-28T12:42:34.054Z,51.93
2022-11-28T12:46:03.879Z,45.47
2022-11-28T12:49:36.699Z,43.23
2022-11-28T12:53:19.549Z,49.73
2022-11-28T12:56:51.566Z,59.20
2022-11-28T13:00:18.458Z,61.73
2022-11-28T13:03:51.836Z,53.03
2022-11-28T13:07:23.942Z,50.93
2022-11-28T13:10:55.108Z,57.17
2022-11-28T13:14:27.860Z,52.57
2022-11-28T13:17:56.867Z,56.17
2022-11-28T13:21:28.797Z,54.30
2022-11-28T13:24:56.766Z,45.93
2022-11-28T13:28:26.267Z,56.30
2022-11-28T13:31:56.128Z,46.97
2022-11-28T13:35:22.948Z,48.43
2022-11-28T13:39:11.826Z,44.17
2022-11-28T13:43:02.957Z,49.97
2022-11-28T13:46:26.903Z,47.33
2022-11-28T13:49:48.921Z,48.80
2022-11-28T13:53:24.648Z,45.37
2022-11-28T13:56:47.808Z,49.03
2022-11-28T14:00:23.162Z,45.20
2022-11-28T14:03:50.244Z,54.93
2022-11-28T14:07:26.258Z,46.00
2022-11-28T14:11:21.342Z,42.63
2022-11-28T14:15:09.867Z,45.50
2022-11-28T14:18:58.794Z,43.07
2022-11-28T14:22:33.828Z,37.93
2022-11-28T14:25:57.100Z,39.27
2022-11-28T14:29:24.052Z,38.43
2022-11-28T14:32:45.878Z,39.47
2022-11-28T14:36:28.826Z,37.43
2022-11-28T14:39:52.775Z,36.90
2022-11-28T14:43:28.070Z,36.30
2022-11-28T14:47:15.331Z,37.57
2022-11-28T14:50:54.582Z,34.93
2022-11-28T14:54:24.036Z,38.00
2022-11-28T14:57:56.699Z,38.50
2022-11-28T15:01:26.418Z,36.93
2022-11-28T15:04:59.967Z,36.97
2022-11-28T15:08:35.438Z,41.93
2022-11-28T15:12:12.555Z,40.20
2022-11-28T15:15:36.059Z,37.23
2022-11-28T15:19:06.052Z,38.53
2022-11-28T15:22:32.055Z,38.17
2022-11-28T15:25:55.107Z,36.00
2022-11-28T15:29:21.372Z,36.90
2022-11-28T15:32:45.094Z,38.37
2022-11-28T15:36:17.455Z,37.20
2022-11-28T15:39:42.261Z,46.80
2022-11-28T15:43:12.497Z,35.90
2022-11-28T15:46:35.547Z,33.83
2022-11-28T15:50:05.554Z,37.73
2022-11-28T15:53:27.587Z,39.77
2022-11-28T15:56:57.673Z,39.40
2022-11-28T16:00:21.995Z,42.93
2022-11-28T16:03:51.007Z,41.47
2022-11-28T16:07:17.141Z,39.30
2022-11-28T16:10:39.389Z,44.30
2022-11-28T16:14:09.482Z,43.97
2022-11-28T16:17:34.502Z,42.97
2022-11-28T16:20:58.384Z,45.63
2022-11-28T16:24:27.197Z,43.63
2022-11-28T16:27:54.413Z,45.07
2022-11-28T16:31:23.782Z,45.13
2022-11-28T16:34:47.045Z,52.23
2022-11-28T16:38:17.470Z,49.90
2022-11-28T16:41:42.456Z,48.50
2022-11-28T16:45:12.358Z,54.40
2022-11-28T16:48:36.150Z,57.20
2022-11-28T16:52:39.074Z,58.30
2022-11-28T16:56:00.778Z,54.23
2022-11-28T16:59:25.686Z,54.53
2022-11-28T17:02:47.223Z,55.53
2022-11-28T17:06:16.839Z,60.77
2022-11-28T17:09:38.509Z,57.83
2022-11-28T17:13:00.422Z,52.13
2022-11-28T17:16:25.388Z,55.60
2022-11-28T17:19:47.619Z,54.23
2022-11-28T17:23:08.974Z,56.97
2022-11-28T17:26:30.976Z,53.83
2022-11-28T17:29:52.861Z,54.40
2022-11-28T17:33:17.447Z,53.00
2022-11-28T17:36:39.251Z,56.90
2022-11-28T17:40:17.844Z,54.40
2022-11-28T17:43:39.577Z,54.43
2022-11-28T17:47:03.026Z,56.37
2022-11-28T17:50:26.186Z,53.10
2022-11-28T17:53:47.714Z,53.27
2022-11-28T17:57:10.717Z,55.17
2022-11-28T18:00:34.121Z,57.23
2022-11-28T18:03:56.149Z,54.97
2022-11-28T18:07:19.572Z,52.33
2022-11-28T18:10:41.880Z,57.53
2022-11-28T18:14:03.946Z,54.27
2022-11-28T18:17:26.025Z,55.53
2022-11-28T18:20:47.721Z,50.73
2022-11-28T18:24:11.138Z,55.73
2022-11-28T18:27:33.048Z,52.83
2022-11-28T18:30:54.978Z,56.43
2022-11-28T18:34:17.000Z,51.40
2022-11-28T18:37:39.749Z,57.07
2022-11-28T18:41:06.985Z,55.63
2022-11-28T18:44:29.192Z,53.27
2022-11-28T18:47:52.188Z,55.07
2022-11-28T18:51:18.631Z,52.20
2022-11-28T18:54:40.859Z,51.97
2022-11-28T18:58:03.851Z,51.83
2022-11-28T19:01:30.252Z,56.47
2022-11-28T19:04:52.637Z,53.50
2022-11-28T19:08:14.793Z,51.63
2022-11-28T19:11:38.162Z,54.47
2022-11-28T19:15:02.983Z,55.37
2022-11-28T19:18:24.773Z,51.63
2022-11-28T19:21:48.239Z,56.73
2022-11-28T19:25:10.410Z,53.37
2022-11-28T19:28:32.915Z,55.23
2022-11-28T19:31:56.510Z,57.60
2022-11-28T19:35:18.282Z,53.70
2022-11-28T19:38:40.433Z,52.63
2022-11-28T19:42:02.542Z,50.73
2022-11-28T19:45:24.661Z,60.23
2022-11-28T19:48:48.273Z,54.07
2022-11-28T19:52:10.137Z,57.00
2022-11-28T19:55:31.832Z,53.07
2022-11-28T19:58:54.091Z,56.73
2022-11-28T20:02:15.850Z,55.63
2022-11-28T20:05:41.647Z,61.07
2022-11-28T20:09:08.847Z,54.70
2022-11-28T20:12:34.658Z,55.43
2022-11-28T20:15:56.422Z,54.40
2022-11-28T20:19:18.492Z,53.30
2022-11-28T20:22:42.185Z,55.30
2022-11-28T20:26:05.789Z,55.63
2022-11-28T20:29:28.047Z,53.50
2022-11-28T20:32:49.685Z,56.63
2022-11-28T20:36:14.894Z,53.13
2022-11-28T20:39:39.621Z,50.47
2022-11-28T20:43:01.295Z,51.70
2022-11-28T20:46:25.224Z,52.50
2022-11-28T20:49:47.221Z,53.27
2022-11-28T20:53:09.322Z,52.97
2022-11-28T20:56:51.706Z,55.67
2022-11-28T21:00:16.987Z,50.67
2022-11-28T21:03:38.927Z,54.80
2022-11-28T21:07:00.663Z,53.13
2022-11-28T21:10:23.114Z,53.67
2022-11-28T21:13:46.705Z,55.63
2022-11-28T21:17:08.616Z,49.73
2022-11-28T21:20:30.422Z,49.53
2022-11-28T21:23:52.407Z,49.43
2022-11-28T21:27:14.064Z,55.07
2022-11-28T21:30:43.250Z,52.90
2022-11-28T21:34:04.991Z,51.67
2022-11-28T21:37:26.618Z,50.57
2022-11-28T21:40:54.181Z,49.10
2022-11-28T21:44:15.863Z,50.63
2022-11-28T21:47:39.364Z,50.80
2022-11-28T21:51:01.763Z,51.63
2022-11-28T21:54:23.455Z,52.00
2022-11-28T21:57:44.992Z,52.90
2022-11-28T22:01:08.645Z,52.70
2022-11-28T22:04:33.761Z,53.40
2022-11-28T22:07:55.529Z,50.57
2022-11-28T22:11:17.563Z,51.57
2022-11-28T22:14:39.538Z,50.17
2022-11-28T22:18:01.170Z,52.93
2022-11-28T22:25:08.850Z,50.23
2022-11-28T22:28:32.979Z,54.30
2022-11-28T22:31:55.475Z,52.97
2022-11-28T22:35:18.010Z,52.37
2022-11-28T22:38:42.596Z,51.33
2022-11-28T22:42:04.606Z,48.67
2022-11-28T22:45:27.444Z,63.07
2022-11-28T22:48:50.615Z,50.83
2022-11-28T22:52:12.702Z,52.43
2022-11-28T22:55:37.378Z,51.50
2022-11-28T22:58:59.885Z,51.57
2022-11-28T23:02:22.948Z,51.57
2022-11-28T23:05:49.100Z,48.70
2022-11-28T23:09:14.668Z,49.53
2022-11-28T23:12:37.564Z,51.30
2022-11-28T23:16:09.830Z,48.63
2022-11-28T23:19:32.150Z,49.43
2022-11-28T23:22:54.658Z,51.70
2022-11-28T23:26:19.504Z,48.57
2022-11-28T23:29:43.490Z,54.00
2022-11-28T23:33:05.235Z,52.50
2022-11-28T23:36:28.736Z,51.80
2022-11-28T23:39:50.602Z,49.43
2022-11-28T23:43:12.490Z,50.50
2022-11-28T23:46:36.625Z,50.50
2022-11-28T23:49:58.554Z,59.07
2022-11-28T23:53:20.006Z,50.27
2022-11-28T23:56:42.813Z,51.03
